Time;durP1;ratioP1;P1;durP2;ratioP2;P2;SDS_P1;SDS_P2;PMS_P1;PMS_P2;Temp;Humidity;BMP_temperature;BMP_pressure;BME280_temperature;BME280_humidity;BME280_pressure;Samples;Min_cycle;Max_cycle;Signal;HPM_P1;HPM_P2
2023/06/12 00:02:08;;;;;;;5.63;3.80;;;;;;;;;;5036505;28;20119;-90
2023/06/12 00:04:34;;;;;;;4.70;3.25;;;;;;;;;;5042557;28;20032;-89
2023/06/12 00:07:01;;;;;;;6.47;3.33;;;;;;;;;;5021439;28;20371;-89
2023/06/12 00:09:28;;;;;;;5.63;3.00;;;;;;;;;;5037776;28;20044;-89
2023/06/12 00:11:54;;;;;;;6.15;3.00;;;;;;;;;;5019666;28;20040;-89
2023/06/12 00:14:20;;;;;;;4.35;3.10;;;;;;;;;;5048411;28;20047;-89
2023/06/12 00:16:46;;;;;;;4.00;3.13;;;;;;;;;;5038644;28;20051;-89
2023/06/12 00:19:12;;;;;;;3.42;2.95;;;;;;;;;;5032834;28;20075;-89
2023/06/12 00:21:41;;;;;;;6.70;3.03;;;;;;;;;;5023940;28;20433;-89
2023/06/12 00:24:08;;;;;;;4.63;3.08;;;;;;;;;;5036306;28;20048;-90
2023/06/12 00:26:38;;;;;;;3.85;3.08;;;;;;;;;;5055806;28;20082;-90
2023/06/12 00:29:05;;;;;;;5.47;3.20;;;;;;;;;;5037700;28;20044;-90
2023/06/12 00:31:31;;;;;;;5.60;2.83;;;;;;;;;;5038261;28;20035;-90
2023/06/12 00:33:57;;;;;;;5.30;2.70;;;;;;;;;;5032530;28;20039;-90
2023/06/12 00:36:23;;;;;;;5.68;3.20;;;;;;;;;;5022358;28;20047;-89
2023/06/12 00:38:51;;;;;;;6.28;3.05;;;;;;;;;;5051638;28;20453;-89
2023/06/12 00:41:18;;;;;;;3.22;2.90;;;;;;;;;;5033375;28;20040;-90
2023/06/12 00:43:44;;;;;;;5.70;3.50;;;;;;;;;;5038022;28;20040;-90
2023/06/12 00:46:11;;;;;;;9.88;3.10;;;;;;;;;;5027120;28;20044;-90
2023/06/12 00:48:37;;;;;;;7.45;2.97;;;;;;;;;;5043797;28;20052;-90
2023/06/12 00:51:04;;;;;;;4.22;3.20;;;;;;;;;;5037629;28;20038;-89
2023/06/12 00:53:30;;;;;;;4.25;2.88;;;;;;;;;;5033354;28;20068;-89
2023/06/12 00:55:56;;;;;;;5.25;3.42;;;;;;;;;;5017401;28;20396;-89
2023/06/12 00:58:22;;;;;;;6.40;3.13;;;;;;;;;;5040320;28;20047;-90
2023/06/12 01:00:48;;;;;;;6.35;3.15;;;;;;;;;;5023349;28;20119;-89
2023/06/12 01:03:14;;;;;;;5.18;3.00;;;;;;;;;;5054923;28;20161;-90
2023/06/12 01:05:44;;;;;;;6.13;3.30;;;;;;;;;;5019535;28;20548;-89
2023/06/12 01:08:26;;;;;;;5.30;3.30;;;;;;;;;;5041658;28;20888;-90
2023/06/12 01:10:52;;;;;;;7.95;3.00;;;;;;;;;;5048408;28;20040;-89
2023/06/12 01:13:18;;;;;;;3.97;3.03;;;;;;;;;;5054597;28;20032;-90
2023/06/12 01:15:44;;;;;;;6.70;3.35;;;;;;;;;;5013556;28;20153;-89
2023/06/12 01:18:10;;;;;;;4.22;2.95;;;;;;;;;;5039681;28;20032;-89
2023/06/12 01:20:37;;;;;;;5.10;2.80;;;;;;;;;;5035052;28;20060;-89
2023/06/12 01:23:06;;;;;;;8.88;2.95;;;;;;;;;;5032018;28;20083;-90
2023/06/12 01:25:43;;;;;;;7.00;2.95;;;;;;;;;;5032309;28;20123;-90
2023/06/12 01:28:25;;;;;;;8.07;3.17;;;;;;;;;;5033311;28;20036;-90
2023/06/12 01:31:06;;;;;;;7.32;3.47;;;;;;;;;;5050774;28;20052;-90
2023/06/12 01:33:33;;;;;;;5.95;2.72;;;;;;;;;;5036937;28;20048;-89
2023/06/12 01:36:00;;;;;;;4.07;2.70;;;;;;;;;;5037708;28;20047;-90
2023/06/12 01:38:27;;;;;;;7.05;3.20;;;;;;;;;;5037598;28;20594;-89
2023/06/12 01:40:53;;;;;;;6.25;3.03;;;;;;;;;;5015389;28;20043;-90
2023/06/12 01:43:22;;;;;;;8.07;2.92;;;;;;;;;;5049558;28;20079;-89
2023/06/12 01:45:48;;;;;;;4.80;2.92;;;;;;;;;;5032053;28;20391;-89
2023/06/12 01:48:14;;;;;;;7.25;2.95;;;;;;;;;;5031252;28;20513;-89
2023/06/12 01:50:40;;;;;;;4.75;3.03;;;;;;;;;;5031059;28;20039;-89
2023/06/12 01:53:07;;;;;;;6.68;3.00;;;;;;;;;;5031419;28;20182;-89
2023/06/12 01:55:33;;;;;;;7.43;3.03;;;;;;;;;;5037619;28;20127;-89
2023/06/12 01:57:59;;;;;;;8.07;3.15;;;;;;;;;;5022880;28;20044;-89
2023/06/12 02:00:25;;;;;;;6.93;3.45;;;;;;;;;;5023980;28;20565;-89
2023/06/12 02:02:53;;;;;;;7.60;2.92;;;;;;;;;;5031538;28;20076;-89
2023/06/12 02:05:20;;;;;;;6.20;3.20;;;;;;;;;;5048293;28;20048;-89
2023/06/12 02:07:46;;;;;;;7.70;3.25;;;;;;;;;;5026520;28;20043;-89
2023/06/12 02:10:12;;;;;;;5.95;3.22;;;;;;;;;;5007577;28;20491;-89
2023/06/12 02:12:43;;;;;;;10.38;3.47;;;;;;;;;;5028986;28;20028;-89
2023/06/12 02:15:10;;;;;;;5.15;2.88;;;;;;;;;;5032152;28;20204;-90
2023/06/12 02:17:36;;;;;;;7.15;3.10;;;;;;;;;;5031912;28;20082;-89
2023/06/12 02:20:03;;;;;;;4.53;3.05;;;;;;;;;;5035259;28;20380;-89
2023/06/12 02:22:29;;;;;;;5.88;3.60;;;;;;;;;;5048110;28;20032;-89
2023/06/12 02:24:56;;;;;;;7.07;3.42;;;;;;;;;;5017047;28;20048;-89
2023/06/12 02:27:22;;;;;;;7.93;3.47;;;;;;;;;;5034019;28;20690;-89
2023/06/12 02:29:48;;;;;;;5.15;3.22;;;;;;;;;;5032964;28;20041;-89
2023/06/12 02:32:15;;;;;;;5.10;3.55;;;;;;;;;;5013037;28;20040;-89
2023/06/12 02:34:41;;;;;;;5.32;3.53;;;;;;;;;;5030641;28;20032;-89
2023/06/12 02:37:08;;;;;;;6.85;3.20;;;;;;;;;;5032973;28;20681;-89
2023/06/12 02:39:34;;;;;;;6.82;3.40;;;;;;;;;;5030421;28;20044;-89
2023/06/12 02:42:00;;;;;;;8.63;3.55;;;;;;;;;;5046804;28;20143;-89
2023/06/12 02:44:27;;;;;;;7.07;3.47;;;;;;;;;;5031678;28;20051;-89
2023/06/12 02:46:56;;;;;;;5.90;3.65;;;;;;;;;;5046956;28;20101;-89
2023/06/12 02:49:24;;;;;;;6.22;3.50;;;;;;;;;;5040769;28;20040;-89
2023/06/12 02:51:50;;;;;;;7.95;3.40;;;;;;;;;;5014189;28;20044;-88
2023/06/12 02:54:16;;;;;;;6.18;3.65;;;;;;;;;;5040846;28;20075;-88
2023/06/12 02:56:44;;;;;;;8.82;3.72;;;;;;;;;;5019351;28;20055;-89
2023/06/12 02:59:11;;;;;;;;;;;;;;;;;;5023995;28;20081;-89
2023/06/12 03:01:43;;;;;;;6.45;3.90;;;;;;;;;;5074928;28;19920;-89
2023/06/12 03:04:10;;;;;;;7.05;3.92;;;;;;;;;;5041095;28;20043;-89
2023/06/12 03:06:36;;;;;;;6.38;3.60;;;;;;;;;;5041622;28;20052;-89
2023/06/12 03:09:03;;;;;;;4.70;3.97;;;;;;;;;;5015797;28;20673;-89
2023/06/12 03:11:30;;;;;;;4.27;3.30;;;;;;;;;;5021287;28;20115;-89
2023/06/12 03:13:56;;;;;;;6.57;4.07;;;;;;;;;;5031024;28;20379;-89
2023/06/12 03:16:22;;;;;;;5.95;3.60;;;;;;;;;;5056724;28;20459;-89
2023/06/12 03:18:48;;;;;;;10.00;4.00;;;;;;;;;;5038756;28;20498;-89
2023/06/12 03:21:14;;;;;;;7.10;4.22;;;;;;;;;;5057291;28;20044;-89
2023/06/12 03:23:40;;;;;;;9.00;3.92;;;;;;;;;;5048039;28;20044;-89
2023/06/12 03:26:06;;;;;;;7.22;3.80;;;;;;;;;;5056726;28;20051;-89
2023/06/12 03:28:34;;;;;;;6.97;3.80;;;;;;;;;;5036418;28;20040;-89
2023/06/12 03:31:00;;;;;;;10.43;3.85;;;;;;;;;;5040941;28;20115;-89
2023/06/12 03:33:26;;;;;;;6.18;3.50;;;;;;;;;;5020705;28;20378;-89
2023/06/12 03:35:53;;;;;;;6.97;3.97;;;;;;;;;;5053533;28;20083;-89
2023/06/12 03:38:19;;;;;;;9.15;3.80;;;;;;;;;;5040175;28;20119;-89
2023/06/12 03:40:45;;;;;;;9.63;3.88;;;;;;;;;;5022959;28;20068;-89
2023/06/12 03:43:11;;;;;;;12.90;4.38;;;;;;;;;;5054265;28;20055;-89
2023/06/12 03:45:40;;;;;;;6.68;3.90;;;;;;;;;;5038900;28;20087;-89
2023/06/12 03:48:06;;;;;;;8.85;3.65;;;;;;;;;;5019357;28;20044;-89
2023/06/12 03:50:32;;;;;;;5.65;3.70;;;;;;;;;;5021237;28;20181;-89
2023/06/12 03:52:58;;;;;;;5.57;3.65;;;;;;;;;;5054431;28;21918;-89
2023/06/12 03:55:24;;;;;;;4.65;3.60;;;;;;;;;;5039969;28;23137;-89
2023/06/12 03:57:50;;;;;;;8.15;3.67;;;;;;;;;;5018159;28;20047;-89
2023/06/12 04:00:17;;;;;;;4.03;3.33;;;;;;;;;;5075209;28;20043;-89
2023/06/12 04:02:43;;;;;;;8.15;3.60;;;;;;;;;;5021435;28;20483;-89
2023/06/12 04:05:10;;;;;;;7.55;4.10;;;;;;;;;;5039893;28;20036;-89
2023/06/12 04:07:39;;;;;;;7.88;4.07;;;;;;;;;;5020824;28;20102;-89
2023/06/12 04:10:05;;;;;;;6.05;4.40;;;;;;;;;;5010169;28;20551;-89
2023/06/12 04:12:32;;;;;;;6.45;3.83;;;;;;;;;;5039920;28;20127;-89
2023/06/12 04:14:58;;;;;;;6.20;4.05;;;;;;;;;;5034990;28;21074;-89
2023/06/12 04:17:24;;;;;;;9.35;4.07;;;;;;;;;;5024344;28;20059;-89
2023/06/12 04:19:50;;;;;;;6.68;3.40;;;;;;;;;;5036650;28;20036;-89
2023/06/12 04:22:16;;;;;;;9.73;4.18;;;;;;;;;;5058531;28;20040;-89
2023/06/12 04:24:43;;;;;;;6.70;4.00;;;;;;;;;;5021513;28;20490;-89
2023/06/12 04:27:10;;;;;;;7.45;3.70;;;;;;;;;;5053813;28;20036;-89
2023/06/12 04:29:42;;;;;;;7.40;4.13;;;;;;;;;;5052352;28;20536;-89
2023/06/12 04:32:09;;;;;;;11.88;3.95;;;;;;;;;;5061857;28;20058;-89
2023/06/12 04:34:43;;;;;;;8.50;4.45;;;;;;;;;;5053140;28;20045;-89
2023/06/12 04:37:13;;;;;;;9.90;4.20;;;;;;;;;;5043487;28;20161;-89
2023/06/12 04:39:43;;;;;;;8.13;3.88;;;;;;;;;;5043406;28;20047;-89
2023/06/12 04:42:10;;;;;;;7.47;4.28;;;;;;;;;;5040197;28;20490;-89
2023/06/12 04:44:37;;;;;;;7.20;3.75;;;;;;;;;;5019237;28;20048;-89
2023/06/12 04:47:11;;;;;;;7.68;4.15;;;;;;;;;;5023977;28;20047;-89
2023/06/12 04:49:41;;;;;;;7.72;4.25;;;;;;;;;;5023456;28;20044;-89
2023/06/12 04:52:12;;;;;;;7.22;4.25;;;;;;;;;;5050956;28;20482;-89
2023/06/12 04:54:44;;;;;;;9.48;4.63;;;;;;;;;;5025795;28;20036;-89
2023/06/12 04:57:13;;;;;;;7.07;4.43;;;;;;;;;;5054634;28;20044;-89
2023/06/12 04:59:39;;;;;;;7.25;4.40;;;;;;;;;;5027229;28;20039;-89
2023/06/12 05:02:09;;;;;;;7.90;4.05;;;;;;;;;;5019946;28;20044;-88
2023/06/12 05:04:38;;;;;;;6.10;3.88;;;;;;;;;;5022211;28;20495;-89
2023/06/12 05:07:13;;;;;;;9.82;4.60;;;;;;;;;;5043410;28;20514;-88
2023/06/12 05:09:39;;;;;;;7.10;4.63;;;;;;;;;;5033420;28;20444;-89
2023/06/12 05:12:06;;;;;;;9.52;4.68;;;;;;;;;;5045576;28;20059;-89
2023/06/12 05:14:34;;;;;;;7.05;4.78;;;;;;;;;;5053343;28;20051;-89
2023/06/12 05:17:00;;;;;;;5.80;4.40;;;;;;;;;;5022550;28;20483;-89
2023/06/12 05:19:26;;;;;;;9.07;4.90;;;;;;;;;;5017372;28;20039;-89
2023/06/12 05:21:53;;;;;;;9.88;4.45;;;;;;;;;;5044088;28;20088;-89
2023/06/12 05:24:19;;;;;;;7.30;4.80;;;;;;;;;;5026910;28;20037;-89
2023/06/12 05:26:46;;;;;;;9.23;4.90;;;;;;;;;;5044431;28;20040;-88
2023/06/12 05:29:12;;;;;;;8.05;5.00;;;;;;;;;;5038940;28;20498;-90
2023/06/12 05:31:41;;;;;;;7.55;4.68;;;;;;;;;;5033304;28;20036;-88
2023/06/12 05:34:07;;;;;;;9.63;4.80;;;;;;;;;;5039908;28;20036;-89
2023/06/12 05:36:33;;;;;;;9.38;4.70;;;;;;;;;;5039565;28;20486;-89
2023/06/12 05:38:59;;;;;;;6.30;4.43;;;;;;;;;;5049120;28;20513;-89
2023/06/12 05:41:25;;;;;;;7.47;5.00;;;;;;;;;;5024302;28;20134;-89
2023/06/12 05:43:51;;;;;;;9.05;5.00;;;;;;;;;;5029674;28;20487;-89
2023/06/12 05:46:17;;;;;;;9.68;4.72;;;;;;;;;;5010601;28;20047;-89
2023/06/12 05:48:43;;;;;;;6.25;4.95;;;;;;;;;;5010433;28;20826;-89
2023/06/12 05:51:09;;;;;;;8.23;4.95;;;;;;;;;;5028530;28;20086;-89
2023/06/12 05:53:35;;;;;;;9.63;4.78;;;;;;;;;;5028804;28;20032;-89
2023/06/12 05:56:02;;;;;;;7.90;4.82;;;;;;;;;;5041756;28;20142;-89
2023/06/12 05:58:28;;;;;;;8.45;5.07;;;;;;;;;;5036399;28;20036;-89
2023/06/12 06:00:55;;;;;;;10.77;4.65;;;;;;;;;;5012014;28;20044;-88
2023/06/12 06:03:23;;;;;;;9.43;5.35;;;;;;;;;;5024215;28;20163;-89
2023/06/12 06:05:49;;;;;;;8.18;5.30;;;;;;;;;;5033590;28;20078;-89
2023/06/12 06:08:15;;;;;;;13.07;5.78;;;;;;;;;;5015473;28;20047;-89
2023/06/12 06:10:41;;;;;;;8.80;5.35;;;;;;;;;;5026831;28;20051;-89
2023/06/12 06:13:08;;;;;;;8.65;5.70;;;;;;;;;;5008322;28;20478;-89
2023/06/12 06:15:35;;;;;;;8.30;5.60;;;;;;;;;;5039895;28;20513;-89
2023/06/12 06:18:01;;;;;;;9.57;5.57;;;;;;;;;;5035712;28;20040;-89
2023/06/12 06:20:27;;;;;;;7.13;5.20;;;;;;;;;;5038127;28;20474;-88
2023/06/12 06:22:53;;;;;;;9.05;5.75;;;;;;;;;;5030274;28;20501;-89
2023/06/12 06:25:20;;;;;;;8.32;5.10;;;;;;;;;;5037278;28;20482;-89
2023/06/12 06:27:46;;;;;;;8.15;5.63;;;;;;;;;;5065057;28;20123;-89
2023/06/12 06:30:12;;;;;;;10.00;5.78;;;;;;;;;;5019985;28;20040;-90
2023/06/12 06:32:38;;;;;;;10.48;5.40;;;;;;;;;;5030836;28;20036;-89
2023/06/12 06:35:05;;;;;;;7.70;5.93;;;;;;;;;;5038814;28;20055;-89
2023/06/12 06:37:31;;;;;;;10.80;6.05;;;;;;;;;;5031691;28;20375;-89
2023/06/12 06:39:57;;;;;;;9.75;5.30;;;;;;;;;;5044620;28;20046;-90
2023/06/12 06:42:23;;;;;;;10.90;5.40;;;;;;;;;;5012312;28;20690;-90
2023/06/12 06:44:49;;;;;;;10.93;5.63;;;;;;;;;;5044873;28;20055;-90
2023/06/12 06:47:15;;;;;;;7.68;5.63;;;;;;;;;;5036417;28;20036;-89
2023/06/12 06:49:41;;;;;;;11.00;5.88;;;;;;;;;;5045578;28;20044;-89
2023/06/12 06:52:08;;;;;;;10.20;5.72;;;;;;;;;;5053481;28;20486;-90
2023/06/12 06:54:34;;;;;;;5.40;4.90;;;;;;;;;;5020967;28;20104;-90
2023/06/12 06:57:02;;;;;;;7.57;5.47;;;;;;;;;;5015242;28;20032;-89
2023/06/12 06:59:29;;;;;;;13.65;5.60;;;;;;;;;;5050416;28;20032;-89
2023/06/12 07:01:55;;;;;;;7.72;5.32;;;;;;;;;;5054511;28;20054;-90
2023/06/12 07:04:21;;;;;;;7.82;5.22;;;;;;;;;;5037256;28;20051;-89
2023/06/12 07:06:47;;;;;;;10.10;5.38;;;;;;;;;;5047448;28;20048;-90
2023/06/12 07:09:14;;;;;;;9.38;5.85;;;;;;;;;;5033795;28;20514;-90
2023/06/12 07:11:40;;;;;;;5.45;4.90;;;;;;;;;;5034639;28;20390;-89
2023/06/12 07:14:06;;;;;;;5.93;5.38;;;;;;;;;;5011760;28;20396;-90
2023/06/12 07:16:32;;;;;;;7.60;5.35;;;;;;;;;;5038716;28;20428;-90
2023/06/12 07:18:58;;;;;;;8.35;5.22;;;;;;;;;;5036439;28;23722;-90
2023/06/12 07:21:26;;;;;;;8.05;6.03;;;;;;;;;;5034517;28;20036;-90
2023/06/12 07:23:52;;;;;;;9.70;5.25;;;;;;;;;;5033071;28;20668;-91
2023/06/12 07:26:18;;;;;;;9.05;5.47;;;;;;;;;;5053736;28;20505;-90
2023/06/12 07:28:45;;;;;;;8.35;5.47;;;;;;;;;;5013185;28;20044;-90
2023/06/12 07:31:11;;;;;;;9.70;5.43;;;;;;;;;;5023205;28;20039;-90
2023/06/12 07:33:41;;;;;;;10.43;5.20;;;;;;;;;;5008249;28;20086;-91
2023/06/12 07:36:07;;;;;;;7.32;4.95;;;;;;;;;;5035700;28;20048;-90
2023/06/12 07:38:33;;;;;;;6.85;4.93;;;;;;;;;;5037893;28;20105;-91
2023/06/12 07:40:59;;;;;;;8.77;5.72;;;;;;;;;;5027554;28;20131;-90
2023/06/12 07:43:25;;;;;;;8.45;5.03;;;;;;;;;;5035140;28;20819;-91
2023/06/12 07:45:51;;;;;;;7.03;4.95;;;;;;;;;;5026368;28;20047;-90
2023/06/12 07:48:17;;;;;;;7.70;5.10;;;;;;;;;;5034603;28;20044;-90
2023/06/12 07:50:43;;;;;;;7.43;5.53;;;;;;;;;;5029009;28;20902;-90
2023/06/12 07:53:10;;;;;;;10.25;5.50;;;;;;;;;;5029839;28;20484;-90
2023/06/12 07:55:36;;;;;;;8.05;5.35;;;;;;;;;;5027518;28;20040;-90
2023/06/12 07:58:02;;;;;;;8.63;5.78;;;;;;;;;;5050167;28;20033;-90
2023/06/12 08:00:28;;;;;;;8.77;5.13;;;;;;;;;;5043755;28;20075;-91
2023/06/12 08:02:57;;;;;;;8.70;5.78;;;;;;;;;;5017195;28;20068;-90
2023/06/12 08:05:26;;;;;;;8.38;4.90;;;;;;;;;;5040248;28;20044;-91
2023/06/12 08:07:52;;;;;;;7.35;5.03;;;;;;;;;;5037437;28;21080;-91
2023/06/12 08:10:18;;;;;;;8.63;4.75;;;;;;;;;;5045350;28;20039;-91
2023/06/12 08:12:44;;;;;;;8.82;5.30;;;;;;;;;;5022175;28;20498;-91
2023/06/12 08:15:11;;;;;;;8.73;4.68;;;;;;;;;;5028732;28;20047;-92
2023/06/12 08:17:42;;;;;;;7.22;5.35;;;;;;;;;;5040975;28;20036;-91
2023/06/12 08:20:09;;;;;;;7.50;5.32;;;;;;;;;;5060035;28;21633;-91
2023/06/12 08:22:35;;;;;;;7.88;5.22;;;;;;;;;;5054260;28;20087;-91
2023/06/12 08:25:05;;;;;;;8.10;4.63;;;;;;;;;;5019190;28;20032;-91
2023/06/12 08:27:31;;;;;;;12.07;5.13;;;;;;;;;;5025290;28;20048;-91
2023/06/12 08:29:57;;;;;;;7.72;5.32;;;;;;;;;;5018851;28;20044;-92
2023/06/12 08:32:23;;;;;;;10.35;5.38;;;;;;;;;;5037237;28;20044;-91
2023/06/12 08:34:51;;;;;;;6.00;5.13;;;;;;;;;;5047690;28;20286;-92
2023/06/12 08:37:17;;;;;;;7.18;4.97;;;;;;;;;;5059023;28;20067;-92
2023/06/12 08:39:43;;;;;;;8.98;5.82;;;;;;;;;;5043353;28;20372;-90
2023/06/12 08:42:10;;;;;;;9.75;5.30;;;;;;;;;;5024188;28;20060;-91
2023/06/12 08:44:36;;;;;;;7.80;5.30;;;;;;;;;;5047742;28;20046;-92
2023/06/12 08:47:03;;;;;;;10.57;5.30;;;;;;;;;;5064820;28;20037;-92
2023/06/12 08:49:30;;;;;;;8.37;4.87;;;;;;;;;;5051676;28;20165;-91
2023/06/12 08:51:56;;;;;;;10.05;4.88;;;;;;;;;;5047656;28;20523;-91
2023/06/12 08:54:22;;;;;;;6.50;5.03;;;;;;;;;;5050066;28;20066;-92
2023/06/12 08:56:48;;;;;;;8.80;5.20;;;;;;;;;;5014532;28;20037;-92
2023/06/12 08:59:15;;;;;;;8.35;5.25;;;;;;;;;;5035632;28;21003;-91
2023/06/12 09:01:41;;;;;;;7.25;4.60;;;;;;;;;;5032584;28;20047;-91
2023/06/12 09:04:09;;;;;;;7.55;5.07;;;;;;;;;;5030814;28;20041;-92
2023/06/12 09:06:36;;;;;;;6.20;4.90;;;;;;;;;;5052534;28;20039;-91
2023/06/12 09:09:03;;;;;;;6.38;5.03;;;;;;;;;;5059809;28;20044;-92
2023/06/12 09:11:29;;;;;;;7.07;5.18;;;;;;;;;;5032835;28;20033;-90
2023/06/12 09:13:55;;;;;;;10.57;5.18;;;;;;;;;;5036565;28;20093;-90
2023/06/12 09:16:21;;;;;;;12.65;5.68;;;;;;;;;;5050727;28;20042;-92
2023/06/12 09:18:51;;;;;;;7.78;4.75;;;;;;;;;;5024898;28;20044;-92
2023/06/12 09:21:17;;;;;;;9.10;4.53;;;;;;;;;;5034669;28;20067;-91
2023/06/12 09:23:45;;;;;;;6.07;4.63;;;;;;;;;;5043510;28;20075;-91
2023/06/12 09:26:15;;;;;;;7.75;5.65;;;;;;;;;;5035707;28;20042;-92
2023/06/12 09:28:42;;;;;;;7.63;4.85;;;;;;;;;;5043126;28;20490;-91
2023/06/12 09:31:08;;;;;;;12.10;5.32;;;;;;;;;;5064833;28;20040;-90
2023/06/12 09:33:41;;;;;;;10.43;5.03;;;;;;;;;;5027395;28;20106;-91
2023/06/12 09:36:08;;;;;;;5.93;4.50;;;;;;;;;;5043117;28;20040;-92
2023/06/12 09:38:34;;;;;;;9.48;5.28;;;;;;;;;;5041331;28;20052;-91
2023/06/12 09:41:01;;;;;;;5.93;4.70;;;;;;;;;;5026180;28;20036;-91
2023/06/12 09:43:27;;;;;;;7.00;4.65;;;;;;;;;;5014588;28;20132;-91
2023/06/12 09:45:53;;;;;;;7.18;5.07;;;;;;;;;;5027265;28;20050;-91
2023/06/12 09:48:19;;;;;;;9.32;4.47;;;;;;;;;;5028332;28;20035;-91
2023/06/12 09:50:48;;;;;;;6.15;4.97;;;;;;;;;;5031136;28;20096;-91
2023/06/12 09:53:17;;;;;;;7.97;5.00;;;;;;;;;;5032246;28;20097;-91
2023/06/12 09:55:46;;;;;;;5.50;4.88;;;;;;;;;;5005751;28;20559;-92
2023/06/12 09:58:15;;;;;;;7.25;5.55;;;;;;;;;;5019979;28;20038;-91
2023/06/12 10:00:42;;;;;;;8.65;4.82;;;;;;;;;;5041882;28;20054;-91
2023/06/12 10:03:09;;;;;;;9.05;5.03;;;;;;;;;;5038146;28;20038;-91
2023/06/12 10:05:41;;;;;;;5.93;5.28;;;;;;;;;;5052435;28;20070;-90
2023/06/12 10:08:08;;;;;;;7.78;5.47;;;;;;;;;;5059439;28;20092;-91
2023/06/12 10:10:35;;;;;;;9.77;5.28;;;;;;;;;;5016341;28;20133;-91
2023/06/12 10:13:04;;;;;;;8.07;5.50;;;;;;;;;;5000930;28;20088;-91
2023/06/12 10:15:31;;;;;;;7.68;5.10;;;;;;;;;;5010754;28;20100;-90
2023/06/12 10:17:57;;;;;;;7.57;5.35;;;;;;;;;;5046226;28;20125;-91
2023/06/12 10:20:23;;;;;;;7.55;5.60;;;;;;;;;;5028060;28;20064;-90
2023/06/12 10:22:50;;;;;;;7.93;4.97;;;;;;;;;;5024300;28;20042;-92
2023/06/12 10:25:16;;;;;;;7.10;5.22;;;;;;;;;;5028169;28;20038;-91
2023/06/12 10:27:42;;;;;;;5.70;5.15;;;;;;;;;;5040143;28;20042;-91
2023/06/12 10:30:11;;;;;;;6.78;5.25;;;;;;;;;;5027643;28;20121;-91
2023/06/12 10:32:38;;;;;;;7.13;5.55;;;;;;;;;;5035706;28;20039;-91
2023/06/12 10:35:04;;;;;;;8.45;6.13;;;;;;;;;;5048922;28;20038;-92
2023/06/12 10:37:31;;;;;;;5.22;4.72;;;;;;;;;;5022345;28;20038;-91
2023/06/12 10:40:16;;;;;;;6.10;5.50;;;;;;;;;;5030416;28;20046;-92
2023/06/12 10:42:43;;;;;;;7.68;5.57;;;;;;;;;;5045548;28;20065;-91
2023/06/12 10:45:19;;;;;;;6.38;5.55;;;;;;;;;;5010872;28;20420;-91
2023/06/12 10:50:33;;;;;;;6.32;5.63;;;;;;;;;;4981560;28;20046;-91
2023/06/12 10:53:02;;;;;;;7.32;5.72;;;;;;;;;;5028852;28;20093;-91
2023/06/12 10:55:28;;;;;;;6.35;5.50;;;;;;;;;;5010710;28;20050;-92
2023/06/12 10:57:55;;;;;;;5.95;5.15;;;;;;;;;;5013983;28;20035;-92
2023/06/12 11:00:24;;;;;;;6.20;5.53;;;;;;;;;;5022614;28;20034;-93
2023/06/12 11:03:03;;;;;;;6.25;5.47;;;;;;;;;;5012684;28;20038;-92
2023/06/12 11:05:30;;;;;;;6.20;5.57;;;;;;;;;;5036962;28;20031;-92
2023/06/12 11:08:02;;;;;;;6.38;5.78;;;;;;;;;;5007567;28;20145;-93
2023/06/12 11:10:29;;;;;;;8.20;5.90;;;;;;;;;;5027001;28;20053;-92
2023/06/12 11:12:55;;;;;;;6.28;5.65;;;;;;;;;;5002537;28;20032;-92
2023/06/12 11:15:21;;;;;;;6.28;5.68;;;;;;;;;;5016771;28;20129;-91
2023/06/12 11:17:48;;;;;;;5.80;5.30;;;;;;;;;;5001388;28;20470;-92
2023/06/12 11:20:14;;;;;;;6.68;5.28;;;;;;;;;;5036848;28;20101;-91
2023/06/12 11:22:40;;;;;;;6.75;6.07;;;;;;;;;;5020184;28;20034;-92
2023/06/12 11:25:07;;;;;;;6.05;5.45;;;;;;;;;;5015467;28;20050;-91
2023/06/12 11:27:38;;;;;;;6.68;5.38;;;;;;;;;;5023403;28;20039;-92
2023/06/12 11:30:11;;;;;;;6.85;5.68;;;;;;;;;;5005647;28;20301;-93
2023/06/12 11:32:37;;;;;;;6.25;5.63;;;;;;;;;;5001207;28;20043;-91
2023/06/12 11:35:04;;;;;;;7.13;5.97;;;;;;;;;;5035621;28;20046;-91
2023/06/12 11:37:30;;;;;;;6.35;5.85;;;;;;;;;;5034608;28;20038;-93
2023/06/12 11:40:14;;;;;;;6.20;5.70;;;;;;;;;;5019473;28;20225;-93
2023/06/12 11:42:44;;;;;;;6.60;5.68;;;;;;;;;;5039017;28;20840;-91
2023/06/12 11:45:11;;;;;;;6.78;5.72;;;;;;;;;;5014968;28;20964;-91
2023/06/12 11:47:41;;;;;;;6.22;5.70;;;;;;;;;;5026160;28;20046;-92
2023/06/12 11:50:08;;;;;;;6.38;5.82;;;;;;;;;;5039122;28;20042;-92
2023/06/12 11:52:34;;;;;;;8.65;6.05;;;;;;;;;;5024173;28;20111;-92
2023/06/12 11:55:02;;;;;;;6.53;5.88;;;;;;;;;;5022408;28;20631;-91
2023/06/12 11:57:28;;;;;;;14.48;6.80;;;;;;;;;;5030893;28;20045;-92
2023/06/12 11:59:57;;;;;;;9.70;6.07;;;;;;;;;;4958132;28;20047;-92
2023/06/12 12:02:33;;;;;;;6.78;6.13;;;;;;;;;;4993530;28;20171;-93
2023/06/12 12:05:03;;;;;;;6.70;6.00;;;;;;;;;;5024753;28;20042;-92
2023/06/12 12:07:30;;;;;;;6.50;5.90;;;;;;;;;;5005028;28;20134;-92
2023/06/12 12:10:06;;;;;;;6.32;5.65;;;;;;;;;;5005961;28;20051;-92
2023/06/12 12:12:46;;;;;;;6.90;6.20;;;;;;;;;;5040450;28;20077;-91
2023/06/12 12:15:12;;;;;;;6.20;5.68;;;;;;;;;;4941945;28;20046;-92
2023/06/12 12:17:39;;;;;;;6.55;6.05;;;;;;;;;;5004860;28;20050;-92
2023/06/12 12:20:08;;;;;;;12.47;6.07;;;;;;;;;;5011103;28;20363;-92
2023/06/12 12:22:38;;;;;;;6.30;5.70;;;;;;;;;;5000884;28;20827;-91
2023/06/12 12:25:05;;;;;;;11.50;6.80;;;;;;;;;;5011240;28;20053;-92
2023/06/12 12:27:31;;;;;;;6.53;6.03;;;;;;;;;;5032936;28;20058;-92
2023/06/12 12:29:57;;;;;;;6.20;5.70;;;;;;;;;;4947678;28;20169;-92
2023/06/12 12:32:24;;;;;;;7.00;6.30;;;;;;;;;;5004776;28;20038;-92
2023/06/12 12:34:50;;;;;;;8.00;6.30;;;;;;;;;;5006824;28;20051;-94
2023/06/12 12:37:16;;;;;;;7.43;6.30;;;;;;;;;;5009878;28;20161;-93
2023/06/12 12:39:42;;;;;;;9.13;6.15;;;;;;;;;;5012401;28;20084;-92
2023/06/12 12:42:08;;;;;;;6.32;5.70;;;;;;;;;;4987578;28;20105;-91
2023/06/12 12:44:34;;;;;;;6.63;6.03;;;;;;;;;;5041510;28;20101;-92
2023/06/12 12:47:00;;;;;;;7.90;5.78;;;;;;;;;;5046083;28;20036;-92
2023/06/12 12:49:26;;;;;;;9.98;6.80;;;;;;;;;;5013256;28;20051;-91
2023/06/12 12:51:52;;;;;;;7.57;6.55;;;;;;;;;;5036984;28;20043;-92
2023/06/12 12:54:18;;;;;;;6.63;6.10;;;;;;;;;;5029272;28;20047;-92
2023/06/12 12:56:45;;;;;;;7.57;5.57;;;;;;;;;;5012625;28;20036;-92
2023/06/12 12:59:11;;;;;;;6.33;5.57;;;;;;;;;;5047285;28;20129;-93
2023/06/12 13:01:40;;;;;;;6.95;6.10;;;;;;;;;;5032798;28;20642;-91
2023/06/12 13:04:06;;;;;;;6.53;5.90;;;;;;;;;;5027053;28;20553;-92
2023/06/12 13:06:35;;;;;;;9.30;6.47;;;;;;;;;;5048380;28;21467;-92
2023/06/12 13:09:01;;;;;;;6.45;5.88;;;;;;;;;;5006482;28;20044;-91
2023/06/12 13:11:28;;;;;;;6.88;5.70;;;;;;;;;;5049988;28;20044;-92
2023/06/12 13:13:54;;;;;;;7.10;6.07;;;;;;;;;;5045554;28;20047;-91
2023/06/12 13:16:20;;;;;;;6.57;5.85;;;;;;;;;;5018938;28;20036;-92
2023/06/12 13:18:47;;;;;;;9.45;5.82;;;;;;;;;;5046325;28;20073;-93
2023/06/12 13:21:13;;;;;;;6.28;5.78;;;;;;;;;;5054223;28;20388;-92
2023/06/12 13:23:39;;;;;;;8.25;5.95;;;;;;;;;;5034938;28;20059;-92
2023/06/12 13:26:05;;;;;;;7.22;6.22;;;;;;;;;;5017887;28;20032;-92
2023/06/12 13:28:33;;;;;;;6.50;5.90;;;;;;;;;;5032516;28;20044;-92
2023/06/12 13:30:59;;;;;;;7.43;6.13;;;;;;;;;;5045142;28;20051;-92
2023/06/12 13:33:25;;;;;;;6.68;5.90;;;;;;;;;;5022065;28;20040;-92
2023/06/12 13:35:51;;;;;;;6.60;5.63;;;;;;;;;;5037441;28;20044;-92
2023/06/12 13:38:17;;;;;;;6.95;5.50;;;;;;;;;;5033881;28;20403;-92
2023/06/12 13:40:44;;;;;;;8.05;5.85;;;;;;;;;;5028238;28;20067;-92
2023/06/12 13:43:10;;;;;;;6.07;5.55;;;;;;;;;;5033857;28;20056;-92
2023/06/12 13:45:37;;;;;;;6.57;5.97;;;;;;;;;;5039032;28;20048;-92
2023/06/12 13:48:03;;;;;;;7.18;5.68;;;;;;;;;;5063076;28;20056;-91
2023/06/12 13:50:30;;;;;;;6.63;5.88;;;;;;;;;;5034899;28;20525;-91
2023/06/12 13:52:56;;;;;;;6.22;5.63;;;;;;;;;;5020124;28;20077;-91
2023/06/12 13:55:22;;;;;;;6.80;6.20;;;;;;;;;;5050787;28;20047;-91
2023/06/12 13:57:48;;;;;;;6.22;5.63;;;;;;;;;;5010745;28;20044;-91
2023/06/12 14:00:15;;;;;;;7.55;5.90;;;;;;;;;;5038529;28;20054;-91
2023/06/12 14:02:41;;;;;;;6.35;5.78;;;;;;;;;;5048381;28;20040;-92
2023/06/12 14:05:08;;;;;;;7.82;5.82;;;;;;;;;;5015567;28;20037;-92
2023/06/12 14:07:34;;;;;;;6.47;5.65;;;;;;;;;;5033868;28;20376;-92
2023/06/12 14:10:00;;;;;;;5.90;5.43;;;;;;;;;;5030948;28;20040;-93
2023/06/12 14:12:26;;;;;;;6.03;5.43;;;;;;;;;;5021232;28;20040;-92
2023/06/12 14:14:53;;;;;;;7.50;5.73;;;;;;;;;;5034040;28;20037;-92
2023/06/12 14:17:19;;;;;;;6.53;5.93;;;;;;;;;;5034727;28;20044;-92
2023/06/12 14:19:45;;;;;;;6.70;6.00;;;;;;;;;;5049788;28;20047;-92
2023/06/12 14:22:11;;;;;;;6.60;6.00;;;;;;;;;;5044926;28;20043;-88
2023/06/12 14:24:38;;;;;;;6.40;5.80;;;;;;;;;;5048290;28;20161;-90
2023/06/12 14:27:05;;;;;;;7.03;6.32;;;;;;;;;;5017982;28;20028;-90
2023/06/12 14:29:31;;;;;;;5.93;5.32;;;;;;;;;;5021077;28;20044;-90
2023/06/12 14:31:57;;;;;;;6.65;5.95;;;;;;;;;;5046635;28;20042;-89
2023/06/12 14:34:23;;;;;;;7.85;6.05;;;;;;;;;;5038160;28;20035;-89
2023/06/12 14:36:49;;;;;;;11.95;6.50;;;;;;;;;;5015944;28;20058;-89
2023/06/12 14:39:16;;;;;;;5.95;5.20;;;;;;;;;;5058398;28;20114;-89
2023/06/12 14:41:42;;;;;;;6.13;5.32;;;;;;;;;;5036908;28;20051;-90
2023/06/12 14:44:08;;;;;;;6.00;5.40;;;;;;;;;;5070549;28;20051;-90
2023/06/12 14:46:34;;;;;;;6.13;5.65;;;;;;;;;;5053084;28;20181;-89